Time;durP1;ratioP1;P1;durP2;ratioP2;P2;SDS_P1;SDS_P2;PMS_P1;PMS_P2;Temp;Humidity;BMP_temperature;BMP_pressure;BME280_temperature;BME280_humidity;BME280_pressure;Samples;Min_cycle;Max_cycle;Signal;HPM_P1;HPM_P2
2023/06/11 00:01:14;;;;;;;9.52;7.13;;;;;;;;;;4984476;28;20042;-65
2023/06/11 00:03:40;;;;;;;7.85;6.80;;;;;;;;;;4998179;28;20032;-67
2023/06/11 00:06:10;;;;;;;6.93;6.20;;;;;;;;;;5011990;28;20049;-66
2023/06/11 00:08:36;;;;;;;7.43;6.60;;;;;;;;;;4985876;28;20538;-66
2023/06/11 00:11:01;;;;;;;6.85;5.88;;;;;;;;;;4984049;28;20084;-66
2023/06/11 00:13:28;;;;;;;9.60;7.28;;;;;;;;;;4998758;28;20063;-66
2023/06/11 00:15:53;;;;;;;9.15;6.32;;;;;;;;;;4991583;28;20172;-66
2023/06/11 00:18:18;;;;;;;6.50;5.88;;;;;;;;;;4985581;28;20046;-65
2023/06/11 00:20:44;;;;;;;7.20;6.50;;;;;;;;;;4984808;28;20042;-65
2023/06/11 00:23:10;;;;;;;7.53;6.30;;;;;;;;;;4998017;28;20041;-66
2023/06/11 00:25:36;;;;;;;7.50;6.65;;;;;;;;;;4998490;28;20041;-66
2023/06/11 00:28:01;;;;;;;22.23;7.80;;;;;;;;;;4961929;28;20491;-66
2023/06/11 00:30:27;;;;;;;7.03;5.88;;;;;;;;;;4984959;28;20050;-66
2023/06/11 00:32:53;;;;;;;8.90;6.15;;;;;;;;;;5001433;28;20404;-66
2023/06/11 00:35:18;;;;;;;6.55;5.85;;;;;;;;;;5013752;28;20045;-65
2023/06/11 00:37:43;;;;;;;6.93;5.78;;;;;;;;;;4984986;28;20048;-65
2023/06/11 00:40:09;;;;;;;6.78;6.07;;;;;;;;;;5005134;28;20073;-66
2023/06/11 00:42:35;;;;;;;7.10;6.38;;;;;;;;;;5018226;28;20046;-65
2023/06/11 00:45:03;;;;;;;7.28;6.57;;;;;;;;;;5019774;28;20033;-65
2023/06/11 00:47:29;;;;;;;8.07;6.63;;;;;;;;;;4984715;28;20310;-65
2023/06/11 00:49:55;;;;;;;8.05;6.20;;;;;;;;;;5002921;28;20041;-65
2023/06/11 00:52:22;;;;;;;6.88;6.03;;;;;;;;;;5014255;28;20107;-65
2023/06/11 00:54:47;;;;;;;8.45;6.57;;;;;;;;;;4985400;28;20092;-65
2023/06/11 00:57:17;;;;;;;7.45;6.28;;;;;;;;;;4993977;28;20857;-65
2023/06/11 00:59:47;;;;;;;6.47;5.75;;;;;;;;;;4976754;28;20054;-65
2023/06/11 01:02:18;;;;;;;6.88;6.18;;;;;;;;;;5019201;28;20041;-66
2023/06/11 01:04:46;;;;;;;8.15;6.43;;;;;;;;;;4998470;28;20410;-65
2023/06/11 01:07:17;;;;;;;8.27;6.45;;;;;;;;;;4981420;28;20091;-65
2023/06/11 01:09:44;;;;;;;9.38;6.32;;;;;;;;;;4984503;28;20046;-66
2023/06/11 01:12:10;;;;;;;8.05;7.25;;;;;;;;;;4983129;28;20057;-65
2023/06/11 01:14:35;;;;;;;7.47;6.05;;;;;;;;;;4995804;28;20045;-65
2023/06/11 01:17:05;;;;;;;7.18;5.82;;;;;;;;;;4996694;28;20037;-65
2023/06/11 01:19:33;;;;;;;6.70;5.82;;;;;;;;;;4988565;28;20072;-65
2023/06/11 01:22:05;;;;;;;8.10;6.82;;;;;;;;;;4963999;28;20040;-65
2023/06/11 01:24:53;;;;;;;8.50;6.97;;;;;;;;;;4986231;28;20042;-65
2023/06/11 01:27:43;;;;;;;8.63;6.80;;;;;;;;;;4988023;28;20117;-65
2023/06/11 01:30:17;;;;;;;7.47;6.05;;;;;;;;;;4966123;28;20042;-65
2023/06/11 01:32:45;;;;;;;7.32;5.95;;;;;;;;;;4971531;28;20038;-65
2023/06/11 01:35:12;;;;;;;8.13;5.85;;;;;;;;;;4980867;28;20514;-65
2023/06/11 01:37:38;;;;;;;7.78;6.63;;;;;;;;;;4979450;28;20069;-65
2023/06/11 01:40:04;;;;;;;6.75;5.85;;;;;;;;;;5015693;28;20382;-65
2023/06/11 01:42:30;;;;;;;6.90;6.20;;;;;;;;;;5022341;28;20537;-65
2023/06/11 01:44:55;;;;;;;7.40;6.63;;;;;;;;;;4996546;28;20040;-66
2023/06/11 01:47:21;;;;;;;7.63;6.47;;;;;;;;;;5023360;28;20402;-65
2023/06/11 01:49:46;;;;;;;10.27;8.40;;;;;;;;;;4992739;28;20490;-65
2023/06/11 01:52:11;;;;;;;9.00;8.10;;;;;;;;;;5016862;28;20429;-65
2023/06/11 01:54:37;;;;;;;11.20;7.70;;;;;;;;;;4995850;28;20036;-65
2023/06/11 01:57:02;;;;;;;8.23;7.30;;;;;;;;;;4982535;28;20065;-65
2023/06/11 01:59:28;;;;;;;9.15;7.57;;;;;;;;;;5031411;28;20120;-65
2023/06/11 02:01:53;;;;;;;8.77;7.22;;;;;;;;;;5006349;28;20050;-65
2023/06/11 02:04:20;;;;;;;9.13;7.35;;;;;;;;;;5003130;28;20491;-65
2023/06/11 02:06:46;;;;;;;7.97;7.15;;;;;;;;;;5004205;28;20124;-65
2023/06/11 02:09:12;;;;;;;8.20;7.38;;;;;;;;;;4995311;28;20042;-66
2023/06/11 02:11:37;;;;;;;9.60;6.97;;;;;;;;;;4967387;28;20192;-65
2023/06/11 02:14:02;;;;;;;8.00;7.20;;;;;;;;;;4983289;28;20049;-65
2023/06/11 02:16:28;;;;;;;8.82;7.85;;;;;;;;;;4986313;28;20525;-66
2023/06/11 02:18:53;;;;;;;8.98;7.93;;;;;;;;;;5031054;28;20033;-66
2023/06/11 02:21:18;;;;;;;8.00;7.18;;;;;;;;;;5014430;28;20048;-66
2023/06/11 02:23:44;;;;;;;11.65;7.43;;;;;;;;;;4990643;28;20490;-66
2023/06/11 02:26:09;;;;;;;7.53;6.78;;;;;;;;;;4976183;28;20040;-65
2023/06/11 02:28:35;;;;;;;8.88;7.40;;;;;;;;;;5004989;28;20038;-66
2023/06/11 02:31:00;;;;;;;8.98;8.07;;;;;;;;;;5003224;28;20045;-66
2023/06/11 02:33:25;;;;;;;8.77;7.60;;;;;;;;;;4995412;28;20720;-65
2023/06/11 02:35:51;;;;;;;9.50;8.15;;;;;;;;;;5019124;28;20040;-65
2023/06/11 02:38:16;;;;;;;9.88;8.55;;;;;;;;;;5033410;28;20517;-65
2023/06/11 02:40:41;;;;;;;8.05;7.25;;;;;;;;;;4982435;28;20059;-65
2023/06/11 02:43:07;;;;;;;8.55;7.75;;;;;;;;;;5002452;28;20117;-65
2023/06/11 02:45:32;;;;;;;8.30;7.32;;;;;;;;;;4987985;28;20046;-65
2023/06/11 02:47:57;;;;;;;7.80;6.93;;;;;;;;;;4979792;28;20073;-65
2023/06/11 02:50:23;;;;;;;8.45;7.43;;;;;;;;;;4986202;28;20060;-65
2023/06/11 02:52:48;;;;;;;9.23;7.93;;;;;;;;;;4986304;28;20507;-65
2023/06/11 02:55:14;;;;;;;7.97;7.18;;;;;;;;;;4974501;28;20030;-65
2023/06/11 02:57:39;;;;;;;10.15;7.30;;;;;;;;;;4982068;28;20054;-65
2023/06/11 03:00:06;;;;;;;8.77;7.35;;;;;;;;;;4991109;28;20037;-65
2023/06/11 03:02:31;;;;;;;10.27;7.85;;;;;;;;;;5013787;28;20047;-65
2023/06/11 03:04:56;;;;;;;10.30;8.68;;;;;;;;;;5015601;28;20422;-65
2023/06/11 03:07:22;;;;;;;8.85;7.95;;;;;;;;;;5014931;28;20033;-65
2023/06/11 03:09:47;;;;;;;8.35;7.45;;;;;;;;;;4975985;28;20081;-66
2023/06/11 03:12:12;;;;;;;9.15;7.60;;;;;;;;;;5008234;28;20402;-65
2023/06/11 03:14:38;;;;;;;8.25;7.35;;;;;;;;;;4996492;28;20141;-66
2023/06/11 03:17:03;;;;;;;9.02;8.13;;;;;;;;;;5005497;28;20052;-65
2023/06/11 03:19:29;;;;;;;9.82;7.88;;;;;;;;;;5012705;28;20134;-65
2023/06/11 03:21:54;;;;;;;8.38;7.50;;;;;;;;;;5018747;28;20052;-65
2023/06/11 03:24:20;;;;;;;9.93;8.82;;;;;;;;;;4998379;28;20051;-65
2023/06/11 03:26:45;;;;;;;9.95;8.60;;;;;;;;;;5005126;28;20083;-65
2023/06/11 03:29:10;;;;;;;8.60;7.40;;;;;;;;;;5006718;28;20098;-65
2023/06/11 03:31:38;;;;;;;9.00;8.05;;;;;;;;;;4983341;28;20061;-65
2023/06/11 03:34:03;;;;;;;10.90;8.18;;;;;;;;;;4989633;28;20029;-66
2023/06/11 03:36:29;;;;;;;8.32;7.38;;;;;;;;;;4985499;28;20052;-65
2023/06/11 03:38:54;;;;;;;8.05;6.97;;;;;;;;;;4997962;28;20041;-65
2023/06/11 03:41:20;;;;;;;9.43;7.90;;;;;;;;;;5007865;28;20385;-65
2023/06/11 03:43:45;;;;;;;8.43;7.55;;;;;;;;;;5014415;28;20040;-64
2023/06/11 03:46:10;;;;;;;9.10;8.13;;;;;;;;;;4999982;28;20088;-65
2023/06/11 03:48:36;;;;;;;9.32;8.13;;;;;;;;;;4994129;28;20068;-65
2023/06/11 03:51:01;;;;;;;10.65;8.45;;;;;;;;;;4979703;28;20096;-65
2023/06/11 03:53:27;;;;;;;7.05;6.35;;;;;;;;;;5015103;28;20677;-65
2023/06/11 03:55:52;;;;;;;8.00;7.20;;;;;;;;;;5006116;28;20045;-65
2023/06/11 03:58:19;;;;;;;8.45;7.38;;;;;;;;;;5006033;28;20045;-65
2023/06/11 04:00:44;;;;;;;8.20;7.35;;;;;;;;;;4992618;28;20423;-65
2023/06/11 04:03:10;;;;;;;9.00;7.40;;;;;;;;;;5004681;28;20029;-65
2023/06/11 04:05:36;;;;;;;7.80;6.82;;;;;;;;;;4989019;28;20068;-65
2023/06/11 04:08:02;;;;;;;8.98;7.13;;;;;;;;;;5008850;28;20033;-64
2023/06/11 04:10:27;;;;;;;7.10;6.25;;;;;;;;;;5027401;28;20032;-65
2023/06/11 04:12:53;;;;;;;9.35;7.93;;;;;;;;;;5023903;28;20064;-65
2023/06/11 04:15:18;;;;;;;9.32;7.18;;;;;;;;;;5027737;28;20215;-64
2023/06/11 04:17:44;;;;;;;7.75;6.72;;;;;;;;;;5021908;28;20584;-65
2023/06/11 04:20:09;;;;;;;9.02;7.68;;;;;;;;;;5011938;28;20059;-65
2023/06/11 04:22:35;;;;;;;10.10;8.02;;;;;;;;;;4994351;28;20039;-65
2023/06/11 04:25:00;;;;;;;7.72;6.88;;;;;;;;;;4967425;28;20046;-65
2023/06/11 04:27:26;;;;;;;8.18;7.38;;;;;;;;;;4980591;28;20677;-66
2023/06/11 04:29:53;;;;;;;10.02;8.35;;;;;;;;;;4996424;28;20045;-65
2023/06/11 04:32:20;;;;;;;9.23;7.40;;;;;;;;;;5000424;28;20029;-64
2023/06/11 04:34:48;;;;;;;9.23;6.85;;;;;;;;;;4980477;28;20043;-65
2023/06/11 04:37:16;;;;;;;9.05;7.70;;;;;;;;;;4986833;28;20064;-64
2023/06/11 04:39:41;;;;;;;9.25;7.53;;;;;;;;;;4995206;28;20506;-65
2023/06/11 04:42:07;;;;;;;11.13;7.90;;;;;;;;;;4977144;28;20069;-65
2023/06/11 04:44:33;;;;;;;8.77;6.80;;;;;;;;;;4979702;28;20045;-65
2023/06/11 04:46:58;;;;;;;10.32;8.00;;;;;;;;;;4967696;28;20049;-65
2023/06/11 04:49:24;;;;;;;10.35;8.00;;;;;;;;;;4983927;28;20105;-64
2023/06/11 04:51:52;;;;;;;10.73;7.65;;;;;;;;;;4989069;28;20161;-66
2023/06/11 04:54:21;;;;;;;7.90;7.10;;;;;;;;;;4973653;28;20046;-65
2023/06/11 04:56:47;;;;;;;9.13;8.20;;;;;;;;;;4970068;28;20426;-67
2023/06/11 04:59:12;;;;;;;9.10;7.55;;;;;;;;;;4978757;28;20030;-67
2023/06/11 05:01:46;;;;;;;9.70;8.00;;;;;;;;;;4966453;28;20780;-67
2023/06/11 05:04:13;;;;;;;8.70;7.63;;;;;;;;;;5014455;28;20103;-67
2023/06/11 05:06:44;;;;;;;10.60;7.38;;;;;;;;;;5004422;28;20041;-67
2023/06/11 05:09:10;;;;;;;10.73;7.32;;;;;;;;;;5006002;28;20048;-67
2023/06/11 05:11:36;;;;;;;9.55;7.30;;;;;;;;;;5012690;28;20049;-67
2023/06/11 05:14:01;;;;;;;7.90;6.93;;;;;;;;;;4999624;28;20094;-67
2023/06/11 05:16:26;;;;;;;10.63;7.20;;;;;;;;;;5002104;28;20043;-67
2023/06/11 05:18:52;;;;;;;13.18;8.07;;;;;;;;;;4989552;28;20093;-67
2023/06/11 05:21:17;;;;;;;9.10;7.38;;;;;;;;;;4979806;28;20044;-67
2023/06/11 05:23:42;;;;;;;8.43;6.90;;;;;;;;;;4997062;28;20072;-67
2023/06/11 05:26:13;;;;;;;9.13;7.72;;;;;;;;;;5006386;28;20420;-67
2023/06/11 05:28:39;;;;;;;10.32;7.30;;;;;;;;;;4996148;28;20603;-67
2023/06/11 05:31:06;;;;;;;11.63;8.73;;;;;;;;;;5023043;28;20136;-66
2023/06/11 05:33:32;;;;;;;9.98;7.93;;;;;;;;;;4988021;28;20060;-67
2023/06/11 05:35:58;;;;;;;9.50;7.80;;;;;;;;;;4989851;28;20049;-67
2023/06/11 05:38:28;;;;;;;9.32;7.65;;;;;;;;;;5009279;28;20098;-66
2023/06/11 05:40:54;;;;;;;9.38;7.35;;;;;;;;;;4995841;28;20048;-67
2023/06/11 05:43:20;;;;;;;8.15;5.95;;;;;;;;;;4997886;28;20069;-66
2023/06/11 05:45:49;;;;;;;7.18;5.60;;;;;;;;;;5006934;28;20053;-67
2023/06/11 05:48:15;;;;;;;9.77;6.93;;;;;;;;;;5013694;28;20029;-67
2023/06/11 05:50:41;;;;;;;8.32;7.43;;;;;;;;;;5010287;28;20131;-66
2023/06/11 05:53:06;;;;;;;8.82;7.53;;;;;;;;;;5002015;28;20657;-67
2023/06/11 05:55:31;;;;;;;9.85;7.22;;;;;;;;;;5005084;28;20037;-67
2023/06/11 05:57:57;;;;;;;8.65;7.18;;;;;;;;;;4994608;28;20050;-67
2023/06/11 06:00:22;;;;;;;9.38;7.13;;;;;;;;;;4983410;28;20080;-66
2023/06/11 06:02:48;;;;;;;7.88;6.63;;;;;;;;;;4986709;28;20048;-66
2023/06/11 06:05:15;;;;;;;7.43;6.68;;;;;;;;;;5001554;28;20036;-66
2023/06/11 06:07:41;;;;;;;7.82;6.03;;;;;;;;;;5002688;28;20398;-67
2023/06/11 06:10:07;;;;;;;8.10;7.20;;;;;;;;;;4971656;28;20113;-67
2023/06/11 06:12:32;;;;;;;7.70;6.88;;;;;;;;;;4975074;28;20042;-66
2023/06/11 06:14:58;;;;;;;7.10;6.10;;;;;;;;;;4984944;28;20118;-67
2023/06/11 06:17:23;;;;;;;9.35;7.28;;;;;;;;;;5016589;28;20468;-68
2023/06/11 06:19:48;;;;;;;8.25;7.35;;;;;;;;;;5009436;28;20087;-66
2023/06/11 06:22:15;;;;;;;8.45;7.03;;;;;;;;;;4988633;28;20052;-67
2023/06/11 06:24:41;;;;;;;6.88;6.18;;;;;;;;;;4970353;28;20069;-67
2023/06/11 06:27:06;;;;;;;7.63;6.40;;;;;;;;;;5017644;28;20046;-67
2023/06/11 06:29:32;;;;;;;6.90;5.22;;;;;;;;;;5015017;28;20070;-68
2023/06/11 06:31:58;;;;;;;7.35;4.70;;;;;;;;;;4999186;28;20137;-65
2023/06/11 06:34:25;;;;;;;5.00;3.72;;;;;;;;;;4983982;28;20148;-65
2023/06/11 06:36:52;;;;;;;6.05;5.38;;;;;;;;;;4993032;28;20116;-65
2023/06/11 06:39:17;;;;;;;10.15;6.75;;;;;;;;;;4970020;28;20060;-65
2023/06/11 06:41:43;;;;;;;9.07;6.25;;;;;;;;;;4997032;28;20042;-65
2023/06/11 06:44:08;;;;;;;6.75;6.05;;;;;;;;;;4984888;28;20029;-65
2023/06/11 06:46:33;;;;;;;6.65;5.82;;;;;;;;;;4997963;28;20095;-66
2023/06/11 06:48:59;;;;;;;7.20;5.80;;;;;;;;;;5013937;28;20055;-65
2023/06/11 06:51:25;;;;;;;9.30;6.28;;;;;;;;;;4994296;28;20044;-65
2023/06/11 06:53:53;;;;;;;7.30;4.00;;;;;;;;;;5018333;28;20847;-65
2023/06/11 06:56:19;;;;;;;6.55;5.78;;;;;;;;;;4995667;28;20048;-65
2023/06/11 06:58:44;;;;;;;5.68;4.07;;;;;;;;;;4989532;28;20041;-65
2023/06/11 07:01:09;;;;;;;6.95;5.22;;;;;;;;;;4996843;28;20588;-65
2023/06/11 07:03:35;;;;;;;8.30;6.13;;;;;;;;;;5002103;28;20053;-66
2023/06/11 07:06:01;;;;;;;6.75;5.38;;;;;;;;;;4956018;28;20043;-65
2023/06/11 07:08:26;;;;;;;8.80;5.18;;;;;;;;;;4969610;28;20042;-65
2023/06/11 07:10:53;;;;;;;8.15;5.28;;;;;;;;;;4991405;28;20045;-66
2023/06/11 07:13:20;;;;;;;9.63;5.78;;;;;;;;;;4994787;28;20030;-65
2023/06/11 07:15:45;;;;;;;7.03;5.55;;;;;;;;;;4997264;28;20128;-65
2023/06/11 07:18:11;;;;;;;7.72;5.50;;;;;;;;;;4990389;28;20212;-66
2023/06/11 07:20:37;;;;;;;7.30;5.50;;;;;;;;;;4982674;28;20125;-65
2023/06/11 07:23:02;;;;;;;8.10;5.85;;;;;;;;;;4995409;28;20059;-65
2023/06/11 07:25:30;;;;;;;8.07;5.80;;;;;;;;;;5021183;28;20041;-66
2023/06/11 07:28:00;;;;;;;7.78;5.72;;;;;;;;;;5017851;28;20033;-65
2023/06/11 07:30:28;;;;;;;10.65;6.28;;;;;;;;;;5020242;28;20152;-65
2023/06/11 07:32:54;;;;;;;5.00;4.10;;;;;;;;;;4985000;28;20049;-66
2023/06/11 07:35:20;;;;;;;10.63;5.22;;;;;;;;;;4984804;28;20117;-65
2023/06/11 07:37:46;;;;;;;8.32;5.70;;;;;;;;;;4993802;28;20205;-66
2023/06/11 07:40:15;;;;;;;6.25;4.75;;;;;;;;;;5010607;28;20617;-66
2023/06/11 07:42:41;;;;;;;4.43;3.40;;;;;;;;;;4988498;28;20053;-66
2023/06/11 07:45:07;;;;;;;6.75;4.68;;;;;;;;;;5006217;28;20438;-65
2023/06/11 07:47:33;;;;;;;6.28;4.38;;;;;;;;;;4981839;28;20038;-66
2023/06/11 07:49:58;;;;;;;6.15;4.85;;;;;;;;;;5008221;28;20063;-66
2023/06/11 07:52:24;;;;;;;9.25;5.55;;;;;;;;;;5016503;28;20584;-65
2023/06/11 07:54:49;;;;;;;9.18;5.38;;;;;;;;;;4999574;28;20052;-66
2023/06/11 07:57:16;;;;;;;5.80;4.95;;;;;;;;;;5002135;28;20044;-66
2023/06/11 07:59:43;;;;;;;6.10;4.75;;;;;;;;;;4951582;28;20046;-66
2023/06/11 08:02:09;;;;;;;8.02;5.68;;;;;;;;;;4993023;28;20209;-66
2023/06/11 08:04:34;;;;;;;6.45;4.88;;;;;;;;;;4994176;28;20138;-66
2023/06/11 08:07:00;;;;;;;7.47;5.30;;;;;;;;;;5013078;28;20048;-68
2023/06/11 08:09:25;;;;;;;7.38;5.03;;;;;;;;;;5020659;28;20087;-66
2023/06/11 08:11:51;;;;;;;6.55;4.65;;;;;;;;;;5006251;28;20406;-66
2023/06/11 08:14:18;;;;;;;6.30;4.53;;;;;;;;;;5006573;28;20033;-66
2023/06/11 08:16:45;;;;;;;4.57;3.28;;;;;;;;;;5018126;28;20124;-65
2023/06/11 08:19:14;;;;;;;6.80;4.88;;;;;;;;;;5008103;28;20063;-66
2023/06/11 08:21:41;;;;;;;6.03;4.95;;;;;;;;;;5013649;28;20049;-66
2023/06/11 08:24:07;;;;;;;6.43;5.15;;;;;;;;;;4997588;28;20514;-65
2023/06/11 08:26:32;;;;;;;5.78;4.30;;;;;;;;;;5007428;28;20144;-65
2023/06/11 08:28:58;;;;;;;8.30;4.95;;;;;;;;;;4989238;28;20132;-65
2023/06/11 08:31:24;;;;;;;4.80;3.70;;;;;;;;;;5021648;28;20057;-66
2023/06/11 08:33:50;;;;;;;7.07;4.85;;;;;;;;;;5016404;28;20053;-66
2023/06/11 08:36:16;;;;;;;5.45;4.25;;;;;;;;;;5016800;28;20760;-66
2023/06/11 08:38:41;;;;;;;6.70;4.43;;;;;;;;;;5011326;28;20067;-66
2023/06/11 08:41:07;;;;;;;6.72;3.95;;;;;;;;;;5028418;28;20494;-66
2023/06/11 08:43:33;;;;;;;5.32;3.42;;;;;;;;;;4992803;28;20049;-67
2023/06/11 08:45:58;;;;;;;7.80;3.85;;;;;;;;;;5010844;28;20130;-66
2023/06/11 08:48:24;;;;;;;5.78;4.15;;;;;;;;;;5019383;28;20036;-66
2023/06/11 08:50:50;;;;;;;4.97;3.63;;;;;;;;;;5018965;28;20097;-67
2023/06/11 08:53:16;;;;;;;6.25;3.58;;;;;;;;;;5012127;28;20059;-66
2023/06/11 08:55:42;;;;;;;6.70;3.63;;;;;;;;;;4992376;28;20513;-66
2023/06/11 08:58:09;;;;;;;5.25;3.72;;;;;;;;;;5019094;28;20103;-66
2023/06/11 09:00:39;;;;;;;7.88;3.72;;;;;;;;;;4998410;28;20045;-66
2023/06/11 09:03:05;;;;;;;4.30;3.43;;;;;;;;;;5000547;28;20068;-66
2023/06/11 09:05:31;;;;;;;4.47;3.00;;;;;;;;;;5000546;28;20064;-66
2023/06/11 09:07:57;;;;;;;5.10;3.33;;;;;;;;;;5001173;28;20041;-66
2023/06/11 09:10:22;;;;;;;4.25;3.15;;;;;;;;;;4982367;28;20071;-66
2023/06/11 09:12:49;;;;;;;5.95;3.38;;;;;;;;;;5022960;28;20037;-66
2023/06/11 09:15:15;;;;;;;5.88;3.20;;;;;;;;;;5014640;28;20148;-66
2023/06/11 09:17:43;;;;;;;4.32;3.05;;;;;;;;;;4995919;28;20064;-66
2023/06/11 09:20:13;;;;;;;7.28;3.42;;;;;;;;;;4984580;28;20049;-65
2023/06/11 09:22:42;;;;;;;6.95;3.17;;;;;;;;;;4984837;28;20092;-66
2023/06/11 09:25:09;;;;;;;4.55;3.17;;;;;;;;;;4988263;28;20047;-66
2023/06/11 09:27:39;;;;;;;5.28;2.95;;;;;;;;;;4987994;28;20156;-66
2023/06/11 09:30:18;;;;;;;3.90;3.10;;;;;;;;;;4989915;28;20407;-66
2023/06/11 09:32:48;;;;;;;3.88;2.75;;;;;;;;;;4976346;28;20066;-66
2023/06/11 09:35:14;;;;;;;4.65;2.78;;;;;;;;;;4958339;28;20050;-65
2023/06/11 09:37:44;;;;;;;6.28;3.15;;;;;;;;;;4971685;28;20057;-66
2023/06/11 09:40:13;;;;;;;4.82;2.78;;;;;;;;;;4977013;28;20636;-66
2023/06/11 09:42:40;;;;;;;3.30;2.05;;;;;;;;;;4983083;28;20046;-66
2023/06/11 09:45:13;;;;;;;5.10;2.67;;;;;;;;;;5015036;28;20052;-66
2023/06/11 09:47:39;;;;;;;6.82;2.58;;;;;;;;;;4988252;28;20673;-67
2023/06/11 09:50:06;;;;;;;4.13;2.20;;;;;;;;;;5000388;28;20056;-67
2023/06/11 09:52:34;;;;;;;3.15;2.20;;;;;;;;;;4974159;28;20081;-67
2023/06/11 09:55:00;;;;;;;3.58;2.45;;;;;;;;;;4982492;28;20928;-67
2023/06/11 09:57:28;;;;;;;2.85;2.30;;;;;;;;;;5004642;28;20095;-67
2023/06/11 09:59:54;;;;;;;4.10;2.40;;;;;;;;;;5001755;28;20057;-67
2023/06/11 10:02:20;;;;;;;3.80;2.78;;;;;;;;;;4968306;28;20069;-67
2023/06/11 10:04:45;;;;;;;3.85;2.60;;;;;;;;;;5007766;28;20079;-67
2023/06/11 10:07:11;;;;;;;3.90;2.50;;;;;;;;;;5024276;28;20577;-67
2023/06/11 10:09:39;;;;;;;3.55;2.47;;;;;;;;;;5004138;28;20040;-67
2023/06/11 10:12:06;;;;;;;4.20;2.55;;;;;;;;;;5017096;28;20130;-66
2023/06/11 10:14:34;;;;;;;2.90;2.10;;;;;;;;;;4996533;28;20060;-67
2023/06/11 10:17:02;;;;;;;4.25;2.63;;;;;;;;;;5015256;28;20573;-67
2023/06/11 10:19:39;;;;;;;3.58;2.50;;;;;;;;;;5011902;28;20044;-67
2023/06/11 10:22:05;;;;;;;4.25;2.50;;;;;;;;;;5018687;28;20037;-66
2023/06/11 10:24:31;;;;;;;3.33;2.30;;;;;;;;;;5023517;28;20509;-66
2023/06/11 10:27:22;;;;;;;4.30;2.45;;;;;;;;;;4997108;28;20052;-66
2023/06/11 10:29:49;;;;;;;3.38;2.15;;;;;;;;;;4975858;28;20680;-67
2023/06/11 10:32:18;;;;;;;3.50;2.45;;;;;;;;;;5011817;28;20045;-67
2023/06/11 10:34:44;;;;;;;3.95;2.40;;;;;;;;;;5022340;28;20045;-67
2023/06/11 10:37:11;;;;;;;4.20;2.33;;;;;;;;;;5007302;28;20044;-67
2023/06/11 10:39:49;;;;;;;3.58;2.58;;;;;;;;;;5004203;28;20045;-67
2023/06/11 10:42:22;;;;;;;6.00;3.88;;;;;;;;;;5007742;28;20131;-66
2023/06/11 10:44:47;;;;;;;3.08;2.03;;;;;;;;;;5017680;28;20860;-67
2023/06/11 10:47:13;;;;;;;2.88;1.90;;;;;;;;;;5021224;28;20049;-67
2023/06/11 10:49:38;;;;;;;3.50;2.40;;;;;;;;;;5016840;28;20068;-67
2023/06/11 10:52:04;;;;;;;4.00;2.70;;;;;;;;;;5005871;28;20521;-67
2023/06/11 10:54:33;;;;;;;3.80;2.63;;;;;;;;;;5011981;28;20148;-67
2023/06/11 10:57:00;;;;;;;5.10;3.08;;;;;;;;;;5008556;28;21924;-67
2023/06/11 10:59:26;;;;;;;5.15;2.42;;;;;;;;;;5000312;28;20043;-67
2023/06/11 11:01:55;;;;;;;4.25;2.28;;;;;;;;;;5012890;28;20496;-67
2023/06/11 11:04:23;;;;;;;4.07;2.35;;;;;;;;;;5009819;28;20503;-67
2023/06/11 11:06:52;;;;;;;3.17;2.05;;;;;;;;;;5023746;28;20041;-67
2023/06/11 11:09:22;;;;;;;4.03;2.80;;;;;;;;;;5013404;28;20029;-67
2023/06/11 11:11:49;;;;;;;4.85;2.50;;;;;;;;;;5018426;28;20120;-66
2023/06/11 11:14:16;;;;;;;3.00;2.25;;;;;;;;;;5022897;28;20037;-67
2023/06/11 11:16:42;;;;;;;3.58;2.00;;;;;;;;;;5021842;28;20048;-67
2023/06/11 11:19:08;;;;;;;3.47;2.63;;;;;;;;;;5011426;28;20473;-67
2023/06/11 11:21:33;;;;;;;3.53;2.60;;;;;;;;;;5001128;28;20040;-67
2023/06/11 11:23:59;;;;;;;5.05;2.85;;;;;;;;;;5022032;28;20151;-67
2023/06/11 11:26:26;;;;;;;4.85;2.60;;;;;;;;;;5022891;28;20127;-67
2023/06/11 11:28:51;;;;;;;4.63;2.50;;;;;;;;;;5024297;28;20615;-67
2023/06/11 11:31:21;;;;;;;3.95;2.78;;;;;;;;;;5014043;28;20040;-67
2023/06/11 11:33:50;;;;;;;4.82;3.05;;;;;;;;;;5021918;28;20048;-67
2023/06/11 11:36:15;;;;;;;3.47;2.75;;;;;;;;;;5017256;28;20045;-67
2023/06/11 11:38:41;;;;;;;4.03;2.70;;;;;;;;;;5028510;28;20101;-66
2023/06/11 11:41:08;;;;;;;3.55;2.85;;;;;;;;;;5024881;28;20070;-66
2023/06/11 11:43:42;;;;;;;5.38;2.60;;;;;;;;;;5021053;28;20040;-67
2023/06/11 11:46:23;;;;;;;5.20;2.50;;;;;;;;;;5019740;28;20052;-67
2023/06/11 11:48:54;;;;;;;3.90;2.25;;;;;;;;;;4997832;28;20049;-75
2023/06/11 11:51:20;;;;;;;3.60;2.40;;;;;;;;;;5032984;28;20152;-67
2023/06/11 11:53:45;;;;;;;5.25;3.05;;;;;;;;;;5027536;28;20525;-67
2023/06/11 11:56:11;;;;;;;3.33;2.58;;;;;;;;;;5025165;28;20037;-67
2023/06/11 11:58:41;;;;;;;4.50;3.03;;;;;;;;;;4998858;28;20050;-67
2023/06/11 12:01:15;;;;;;;4.88;2.85;;;;;;;;;;5013578;28;20048;-66
2023/06/11 12:03:40;;;;;;;3.30;2.10;;;;;;;;;;5024750;28;20045;-66
2023/06/11 12:06:07;;;;;;;5.68;2.85;;;;;;;;;;5016334;28;20048;-67
2023/06/11 12:08:34;;;;;;;3.30;2.67;;;;;;;;;;5018335;28;20071;-66
2023/06/11 12:11:01;;;;;;;2.70;1.98;;;;;;;;;;5009309;28;20128;-67
2023/06/11 12:13:27;;;;;;;4.15;2.50;;;;;;;;;;5017899;28;20573;-67
2023/06/11 12:15:53;;;;;;;5.63;3.00;;;;;;;;;;5027226;28;20131;-67
2023/06/11 12:18:18;;;;;;;4.60;2.97;;;;;;;;;;5024336;28;20040;-67
2023/06/11 12:20:44;;;;;;;5.43;2.80;;;;;;;;;;5024463;28;20144;-67
2023/06/11 12:23:09;;;;;;;4.45;2.55;;;;;;;;;;5016450;28;20041;-67
2023/06/11 12:25:35;;;;;;;3.33;2.53;;;;;;;;;;5014828;28;20057;-67
2023/06/11 12:28:02;;;;;;;3.53;2.63;;;;;;;;;;5013981;28;20043;-67
2023/06/11 12:30:30;;;;;;;3.65;2.38;;;;;;;;;;5016117;28;20128;-67
2023/06/11 12:32:57;;;;;;;2.50;2.30;;;;;;;;;;4995519;28;20096;-67
2023/06/11 12:35:23;;;;;;;3.53;2.40;;;;;;;;;;4986015;28;20470;-67
2023/06/11 12:37:48;;;;;;;3.97;2.70;;;;;;;;;;4976113;28;20042;-67
2023/06/11 12:40:13;;;;;;;5.30;2.75;;;;;;;;;;4993558;28;20129;-67
2023/06/11 12:42:39;;;;;;;4.55;2.78;;;;;;;;;;4962205;28;20902;-67
2023/06/11 12:45:05;;;;;;;3.85;2.85;;;;;;;;;;4992013;28;20398;-66
2023/06/11 12:47:31;;;;;;;4.38;2.70;;;;;;;;;;5019696;28;20429;-66
2023/06/11 12:49:56;;;;;;;3.95;2.63;;;;;;;;;;4989690;28;20030;-67
2023/06/11 12:52:22;;;;;;;5.22;2.80;;;;;;;;;;4970706;28;20031;-67
2023/06/11 12:54:48;;;;;;;4.32;2.80;;;;;;;;;;4963367;28;20054;-67
2023/06/11 12:57:15;;;;;;;4.47;2.75;;;;;;;;;;4984901;28;20057;-67
2023/06/11 12:59:40;;;;;;;3.95;2.47;;;;;;;;;;4991193;28;20041;-67
2023/06/11 13:02:08;;;;;;;3.97;2.50;;;;;;;;;;4992015;28;20040;-67
2023/06/11 13:04:33;;;;;;;4.07;2.80;;;;;;;;;;4970144;28;20050;-67
2023/06/11 13:06:58;;;;;;;4.05;3.00;;;;;;;;;;4979240;28;20837;-68
2023/06/11 13:09:24;;;;;;;2.92;2.25;;;;;;;;;;4970658;28;20568;-68
2023/06/11 13:11:51;;;;;;;3.40;2.65;;;;;;;;;;4989665;28;20060;-67
2023/06/11 13:14:16;;;;;;;3.97;2.60;;;;;;;;;;4980644;28;20069;-68
2023/06/11 13:16:41;;;;;;;6.18;2.50;;;;;;;;;;4998764;28;20088;-68
2023/06/11 13:19:07;;;;;;;5.85;2.70;;;;;;;;;;4978086;28;20116;-67
2023/06/11 13:21:34;;;;;;;3.35;2.55;;;;;;;;;;4985749;28;20066;-68
2023/06/11 13:23:59;;;;;;;3.45;2.70;;;;;;;;;;4961785;28;20058;-67
2023/06/11 13:26:25;;;;;;;3.90;2.50;;;;;;;;;;4980796;28;20128;-67
2023/06/11 13:28:50;;;;;;;6.20;3.58;;;;;;;;;;5016709;28;20131;-67
2023/06/11 13:31:17;;;;;;;4.20;2.78;;;;;;;;;;5026622;28;20036;-67
2023/06/11 13:33:43;;;;;;;6.38;3.15;;;;;;;;;;4991226;28;20699;-68
2023/06/11 13:36:08;;;;;;;4.50;3.03;;;;;;;;;;4977873;28;20042;-67
2023/06/11 13:38:35;;;;;;;3.80;2.50;;;;;;;;;;4976202;28;20054;-67
2023/06/11 13:41:01;;;;;;;5.07;2.83;;;;;;;;;;5004943;28;20521;-67
2023/06/11 13:43:26;;;;;;;3.63;2.70;;;;;;;;;;5027680;28;20041;-66
2023/06/11 13:45:53;;;;;;;3.67;2.28;;;;;;;;;;5012912;28;20034;-67
2023/06/11 13:48:19;;;;;;;4.05;2.40;;;;;;;;;;4994992;28;20042;-67
2023/06/11 13:50:47;;;;;;;2.60;2.20;;;;;;;;;;4991759;28;20033;-67
2023/06/11 13:53:13;;;;;;;5.50;2.53;;;;;;;;;;4984312;28;20037;-67
2023/06/11 13:55:39;;;;;;;4.25;2.58;;;;;;;;;;4985393;28;20046;-67
2023/06/11 13:58:05;;;;;;;3.38;2.38;;;;;;;;;;4987617;28;20606;-67
2023/06/11 14:00:31;;;;;;;3.35;2.60;;;;;;;;;;4985973;28;20836;-67
2023/06/11 14:02:57;;;;;;;2.90;2.40;;;;;;;;;;4998406;28;20073;-67
2023/06/11 14:05:24;;;;;;;3.28;2.20;;;;;;;;;;4983926;28;20042;-66
2023/06/11 14:07:50;;;;;;;3.65;2.47;;;;;;;;;;5000781;28;20041;-67
2023/06/11 14:10:15;;;;;;;3.25;2.30;;;;;;;;;;5013688;28;20033;-67
2023/06/11 14:12:40;;;;;;;4.78;2.67;;;;;;;;;;5012098;28;20045;-67
2023/06/11 14:15:06;;;;;;;4.05;2.70;;;;;;;;;;5002487;28;20043;-68
2023/06/11 14:17:34;;;;;;;3.10;2.47;;;;;;;;;;5014117;28;20511;-67
2023/06/11 14:20:04;;;;;;;3.17;2.45;;;;;;;;;;5003135;28;20620;-67
2023/06/11 14:22:29;;;;;;;3.30;2.70;;;;;;;;;;4996469;28;20092;-67
2023/06/11 14:24:55;;;;;;;3.65;2.50;;;;;;;;;;5023492;28;20033;-67
2023/06/11 14:27:20;;;;;;;4.53;2.80;;;;;;;;;;5024115;28;20757;-67
2023/06/11 14:29:46;;;;;;;3.28;2.58;;;;;;;;;;5004867;28;20041;-67
2023/06/11 14:32:11;;;;;;;4.93;3.15;;;;;;;;;;5004122;28;20561;-68
2023/06/11 14:34:36;;;;;;;5.30;3.08;;;;;;;;;;5012265;28;20100;-67
2023/06/11 14:37:02;;;;;;;3.92;2.78;;;;;;;;;;5015613;28;20045;-67
2023/06/11 14:39:27;;;;;;;5.07;2.92;;;;;;;;;;5020219;28;20068;-67